sensor_id;sensor_type;location;lat;lon;timestamp;P1;durP1;ratioP1;P2;durP2;ratioP2
43560;SDS011;32305;46.410;17.394;2022-07-06T00:01:19;1.17;;;1.08;;
43560;SDS011;32305;46.410;17.394;2022-07-06T00:03:46;1.23;;;1.23;;
43560;SDS011;32305;46.410;17.394;2022-07-06T00:06:20;1.67;;;1.60;;
43560;SDS011;32305;46.410;17.394;2022-07-06T00:08:47;1.40;;;1.40;;
43560;SDS011;32305;46.410;17.394;2022-07-06T00:11:15;1.40;;;1.40;;
43560;SDS011;32305;46.410;17.394;2022-07-06T00:13:42;1.55;;;1.45;;
43560;SDS011;32305;46.410;17.394;2022-07-06T00:16:09;1.50;;;1.50;;
43560;SDS011;32305;46.410;17.394;2022-07-06T00:18:37;1.27;;;1.25;;
43560;SDS011;32305;46.410;17.394;2022-07-06T00:21:04;1.40;;;1.40;;
43560;SDS011;32305;46.410;17.394;2022-07-06T00:23:31;1.45;;;1.35;;
43560;SDS011;32305;46.410;17.394;2022-07-06T00:25:59;1.50;;;1.50;;
43560;SDS011;32305;46.410;17.394;2022-07-06T00:28:26;1.33;;;1.33;;
43560;SDS011;32305;46.410;17.394;2022-07-06T00:30:53;1.15;;;1.15;;
43560;SDS011;32305;46.410;17.394;2022-07-06T00:33:21;1.50;;;1.40;;
43560;SDS011;32305;46.410;17.394;2022-07-06T00:35:48;1.20;;;1.20;;
43560;SDS011;32305;46.410;17.394;2022-07-06T00:38:15;1.13;;;1.13;;
43560;SDS011;32305;46.410;17.394;2022-07-06T00:40:42;1.45;;;1.45;;
43560;SDS011;32305;46.410;17.394;2022-07-06T00:43:09;1.25;;;1.25;;
43560;SDS011;32305;46.410;17.394;2022-07-06T00:45:37;1.30;;;1.30;;
43560;SDS011;32305;46.410;17.394;2022-07-06T00:48:04;1.30;;;1.30;;
43560;SDS011;32305;46.410;17.394;2022-07-06T00:50:32;1.38;;;1.38;;
43560;SDS011;32305;46.410;17.394;2022-07-06T00:53:01;1.73;;;1.63;;
43560;SDS011;32305;46.410;17.394;2022-07-06T00:55:31;1.60;;;1.58;;
43560;SDS011;32305;46.410;17.394;2022-07-06T01:00:30;1.40;;;1.40;;
43560;SDS011;32305;46.410;17.394;2022-07-06T01:02:58;1.63;;;1.52;;
43560;SDS011;32305;46.410;17.394;2022-07-06T01:05:26;1.85;;;1.75;;
43560;SDS011;32305;46.410;17.394;2022-07-06T01:07:54;1.55;;;1.45;;
43560;SDS011;32305;46.410;17.394;2022-07-06T01:10:23;1.38;;;1.35;;
43560;SDS011;32305;46.410;17.394;2022-07-06T01:12:50;1.23;;;1.20;;
43560;SDS011;32305;46.410;17.394;2022-07-06T01:15:22;1.90;;;1.80;;
43560;SDS011;32305;46.410;17.394;2022-07-06T01:17:50;1.52;;;1.48;;
43560;SDS011;32305;46.410;17.394;2022-07-06T01:20:19;1.52;;;1.52;;
43560;SDS011;32305;46.410;17.394;2022-07-06T01:22:48;1.40;;;1.40;;
43560;SDS011;32305;46.410;17.394;2022-07-06T01:25:17;1.30;;;1.30;;
43560;SDS011;32305;46.410;17.394;2022-07-06T01:27:46;1.83;;;1.73;;
43560;SDS011;32305;46.410;17.394;2022-07-06T01:30:14;1.70;;;1.70;;
43560;SDS011;32305;46.410;17.394;2022-07-06T01:32:44;1.48;;;1.48;;
43560;SDS011;32305;46.410;17.394;2022-07-06T01:35:15;1.52;;;1.52;;
43560;SDS011;32305;46.410;17.394;2022-07-06T01:37:43;2.05;;;1.95;;
43560;SDS011;32305;46.410;17.394;2022-07-06T01:40:11;1.70;;;1.60;;
43560;SDS011;32305;46.410;17.394;2022-07-06T01:42:39;1.80;;;1.70;;
43560;SDS011;32305;46.410;17.394;2022-07-06T01:45:06;1.60;;;1.52;;
43560;SDS011;32305;46.410;17.394;2022-07-06T01:47:34;1.88;;;1.77;;
43560;SDS011;32305;46.410;17.394;2022-07-06T01:50:04;1.95;;;1.85;;
43560;SDS011;32305;46.410;17.394;2022-07-06T01:52:33;2.00;;;1.90;;
43560;SDS011;32305;46.410;17.394;2022-07-06T01:55:00;1.42;;;1.42;;
43560;SDS011;32305;46.410;17.394;2022-07-06T01:57:27;1.58;;;1.58;;
43560;SDS011;32305;46.410;17.394;2022-07-06T01:59:54;1.65;;;1.55;;
43560;SDS011;32305;46.410;17.394;2022-07-06T02:02:21;2.15;;;2.05;;
43560;SDS011;32305;46.410;17.394;2022-07-06T02:04:48;1.77;;;1.52;;
43560;SDS011;32305;46.410;17.394;2022-07-06T02:07:16;1.73;;;1.63;;
43560;SDS011;32305;46.410;17.394;2022-07-06T02:09:43;1.55;;;1.55;;
43560;SDS011;32305;46.410;17.394;2022-07-06T02:12:10;1.77;;;1.67;;
43560;SDS011;32305;46.410;17.394;2022-07-06T02:14:37;2.00;;;1.90;;
43560;SDS011;32305;46.410;17.394;2022-07-06T02:17:04;1.88;;;1.77;;
43560;SDS011;32305;46.410;17.394;2022-07-06T02:19:31;1.80;;;1.70;;
43560;SDS011;32305;46.410;17.394;2022-07-06T02:21:59;1.52;;;1.42;;
43560;SDS011;32305;46.410;17.394;2022-07-06T02:24:26;1.65;;;1.58;;
43560;SDS011;32305;46.410;17.394;2022-07-06T02:26:53;1.88;;;1.77;;
43560;SDS011;32305;46.410;17.394;2022-07-06T02:29:20;1.73;;;1.63;;
43560;SDS011;32305;46.410;17.394;2022-07-06T02:31:48;1.60;;;1.50;;
43560;SDS011;32305;46.410;17.394;2022-07-06T02:34:15;1.95;;;1.85;;
43560;SDS011;32305;46.410;17.394;2022-07-06T02:36:42;1.95;;;1.85;;
43560;SDS011;32305;46.410;17.394;2022-07-06T02:39:09;1.65;;;1.63;;
43560;SDS011;32305;46.410;17.394;2022-07-06T02:41:36;1.80;;;1.70;;
43560;SDS011;32305;46.410;17.394;2022-07-06T02:44:03;1.83;;;1.73;;
43560;SDS011;32305;46.410;17.394;2022-07-06T02:46:30;1.40;;;1.40;;
43560;SDS011;32305;46.410;17.394;2022-07-06T02:48:57;1.77;;;1.67;;
43560;SDS011;32305;46.410;17.394;2022-07-06T02:51:25;1.67;;;1.67;;
43560;SDS011;32305;46.410;17.394;2022-07-06T02:53:52;1.55;;;1.55;;
43560;SDS011;32305;46.410;17.394;2022-07-06T02:56:19;1.63;;;1.63;;
43560;SDS011;32305;46.410;17.394;2022-07-06T02:58:46;1.70;;;1.65;;
43560;SDS011;32305;46.410;17.394;2022-07-06T03:01:13;1.75;;;1.65;;
43560;SDS011;32305;46.410;17.394;2022-07-06T03:03:41;1.40;;;1.40;;
43560;SDS011;32305;46.410;17.394;2022-07-06T03:06:08;3.55;;;2.20;;
43560;SDS011;32305;46.410;17.394;2022-07-06T03:08:35;1.75;;;1.65;;
43560;SDS011;32305;46.410;17.394;2022-07-06T03:11:03;1.50;;;1.50;;
43560;SDS011;32305;46.410;17.394;2022-07-06T03:13:30;1.70;;;1.60;;
43560;SDS011;32305;46.410;17.394;2022-07-06T03:15:57;1.88;;;1.77;;
43560;SDS011;32305;46.410;17.394;2022-07-06T03:18:24;1.95;;;1.85;;
43560;SDS011;32305;46.410;17.394;2022-07-06T03:20:52;1.85;;;1.75;;
43560;SDS011;32305;46.410;17.394;2022-07-06T03:23:20;1.60;;;1.50;;
43560;SDS011;32305;46.410;17.394;2022-07-06T03:25:47;1.83;;;1.73;;
43560;SDS011;32305;46.410;17.394;2022-07-06T03:28:14;1.75;;;1.65;;
43560;SDS011;32305;46.410;17.394;2022-07-06T03:30:41;1.83;;;1.73;;
43560;SDS011;32305;46.410;17.394;2022-07-06T03:33:08;1.90;;;1.80;;
43560;SDS011;32305;46.410;17.394;2022-07-06T03:35:35;1.65;;;1.58;;
43560;SDS011;32305;46.410;17.394;2022-07-06T03:38:02;1.52;;;1.50;;
43560;SDS011;32305;46.410;17.394;2022-07-06T03:40:29;1.92;;;1.83;;
43560;SDS011;32305;46.410;17.394;2022-07-06T03:42:57;1.88;;;1.73;;
43560;SDS011;32305;46.410;17.394;2022-07-06T03:45:24;1.63;;;1.63;;
43560;SDS011;32305;46.410;17.394;2022-07-06T03:47:51;1.85;;;1.75;;
43560;SDS011;32305;46.410;17.394;2022-07-06T03:50:18;1.88;;;1.77;;
43560;SDS011;32305;46.410;17.394;2022-07-06T03:52:45;2.08;;;1.98;;
43560;SDS011;32305;46.410;17.394;2022-07-06T03:55:12;2.05;;;1.92;;
43560;SDS011;32305;46.410;17.394;2022-07-06T03:57:40;1.85;;;1.75;;
43560;SDS011;32305;46.410;17.394;2022-07-06T04:00:08;1.80;;;1.80;;
43560;SDS011;32305;46.410;17.394;2022-07-06T04:02:35;1.98;;;1.88;;
43560;SDS011;32305;46.410;17.394;2022-07-06T04:05:03;1.90;;;1.80;;
43560;SDS011;32305;46.410;17.394;2022-07-06T04:07:30;2.00;;;1.90;;
43560;SDS011;32305;46.410;17.394;2022-07-06T04:09:57;1.73;;;1.73;;
43560;SDS011;32305;46.410;17.394;2022-07-06T04:12:25;2.05;;;1.95;;
43560;SDS011;32305;46.410;17.394;2022-07-06T04:14:52;1.95;;;1.85;;
43560;SDS011;32305;46.410;17.394;2022-07-06T04:17:22;1.70;;;1.67;;
43560;SDS011;32305;46.410;17.394;2022-07-06T04:20:09;1.95;;;1.83;;
43560;SDS011;32305;46.410;17.394;2022-07-06T04:22:37;2.33;;;2.10;;
43560;SDS011;32305;46.410;17.394;2022-07-06T04:25:05;1.95;;;1.88;;
43560;SDS011;32305;46.410;17.394;2022-07-06T04:27:32;2.15;;;2.05;;
43560;SDS011;32305;46.410;17.394;2022-07-06T04:29:59;2.40;;;1.90;;
43560;SDS011;32305;46.410;17.394;2022-07-06T04:32:27;2.40;;;2.30;;
43560;SDS011;32305;46.410;17.394;2022-07-06T04:34:54;1.95;;;1.90;;
43560;SDS011;32305;46.410;17.394;2022-07-06T04:37:21;2.17;;;2.08;;
43560;SDS011;32305;46.410;17.394;2022-07-06T04:39:49;2.47;;;2.35;;
43560;SDS011;32305;46.410;17.394;2022-07-06T04:42:16;2.30;;;2.10;;
43560;SDS011;32305;46.410;17.394;2022-07-06T04:44:43;2.75;;;2.58;;
43560;SDS011;32305;46.410;17.394;2022-07-06T04:47:10;1.90;;;1.80;;
43560;SDS011;32305;46.410;17.394;2022-07-06T04:49:38;2.75;;;2.17;;
43560;SDS011;32305;46.410;17.394;2022-07-06T04:52:05;2.30;;;2.20;;
43560;SDS011;32305;46.410;17.394;2022-07-06T04:54:34;2.15;;;2.05;;
43560;SDS011;32305;46.410;17.394;2022-07-06T04:57:01;2.17;;;2.08;;
43560;SDS011;32305;46.410;17.394;2022-07-06T04:59:35;1.95;;;1.88;;
43560;SDS011;32305;46.410;17.394;2022-07-06T05:02:02;1.90;;;1.80;;
43560;SDS011;32305;46.410;17.394;2022-07-06T05:04:30;2.65;;;2.05;;
43560;SDS011;32305;46.410;17.394;2022-07-06T05:06:57;2.03;;;1.92;;
43560;SDS011;32305;46.410;17.394;2022-07-06T05:09:24;2.35;;;2.25;;
43560;SDS011;32305;46.410;17.394;2022-07-06T05:11:52;2.42;;;2.33;;
43560;SDS011;32305;46.410;17.394;2022-07-06T05:14:19;2.20;;;2.10;;
43560;SDS011;32305;46.410;17.394;2022-07-06T05:16:47;2.10;;;2.00;;
43560;SDS011;32305;46.410;17.394;2022-07-06T05:19:14;2.08;;;1.98;;
43560;SDS011;32305;46.410;17.394;2022-07-06T05:21:41;2.35;;;2.25;;
43560;SDS011;32305;46.410;17.394;2022-07-06T05:24:09;2.20;;;2.10;;
43560;SDS011;32305;46.410;17.394;2022-07-06T05:26:36;2.40;;;2.22;;
43560;SDS011;32305;46.410;17.394;2022-07-06T05:29:03;2.97;;;2.00;;
43560;SDS011;32305;46.410;17.394;2022-07-06T05:31:30;1.90;;;1.80;;
43560;SDS011;32305;46.410;17.394;2022-07-06T05:33:57;2.13;;;2.00;;
43560;SDS011;32305;46.410;17.394;2022-07-06T05:36:25;1.95;;;1.90;;
43560;SDS011;32305;46.410;17.394;2022-07-06T05:38:52;2.17;;;2.08;;
43560;SDS011;32305;46.410;17.394;2022-07-06T05:41:19;1.60;;;1.60;;
43560;SDS011;32305;46.410;17.394;2022-07-06T05:43:46;2.22;;;2.13;;
43560;SDS011;32305;46.410;17.394;2022-07-06T05:46:13;1.90;;;1.80;;
43560;SDS011;32305;46.410;17.394;2022-07-06T05:48:41;1.92;;;1.88;;
43560;SDS011;32305;46.410;17.394;2022-07-06T05:51:28;2.20;;;2.10;;
43560;SDS011;32305;46.410;17.394;2022-07-06T05:53:55;1.92;;;1.83;;
43560;SDS011;32305;46.410;17.394;2022-07-06T05:56:23;2.10;;;2.00;;
43560;SDS011;32305;46.410;17.394;2022-07-06T05:58:50;1.90;;;1.80;;
43560;SDS011;32305;46.410;17.394;2022-07-06T06:01:17;2.50;;;2.40;;
43560;SDS011;32305;46.410;17.394;2022-07-06T06:03:45;2.13;;;2.03;;
43560;SDS011;32305;46.410;17.394;2022-07-06T06:06:12;2.20;;;2.10;;
43560;SDS011;32305;46.410;17.394;2022-07-06T06:08:39;2.42;;;2.25;;
43560;SDS011;32305;46.410;17.394;2022-07-06T06:11:07;2.42;;;2.22;;
43560;SDS011;32305;46.410;17.394;2022-07-06T06:13:37;5.00;;;2.22;;
43560;SDS011;32305;46.410;17.394;2022-07-06T06:16:04;2.40;;;2.20;;
43560;SDS011;32305;46.410;17.394;2022-07-06T06:18:31;2.50;;;2.30;;
43560;SDS011;32305;46.410;17.394;2022-07-06T06:21:06;2.15;;;2.05;;
43560;SDS011;32305;46.410;17.394;2022-07-06T06:23:34;2.92;;;2.00;;
43560;SDS011;32305;46.410;17.394;2022-07-06T06:26:01;3.58;;;2.30;;
43560;SDS011;32305;46.410;17.394;2022-07-06T06:28:28;2.30;;;2.20;;
43560;SDS011;32305;46.410;17.394;2022-07-06T06:30:55;3.15;;;2.38;;
43560;SDS011;32305;46.410;17.394;2022-07-06T06:33:23;3.15;;;2.58;;
43560;SDS011;32305;46.410;17.394;2022-07-06T06:35:51;3.78;;;2.35;;
43560;SDS011;32305;46.410;17.394;2022-07-06T06:38:20;2.50;;;2.30;;
43560;SDS011;32305;46.410;17.394;2022-07-06T06:40:49;2.53;;;2.33;;
43560;SDS011;32305;46.410;17.394;2022-07-06T06:43:16;2.88;;;2.55;;
43560;SDS011;32305;46.410;17.394;2022-07-06T06:45:43;3.78;;;2.70;;
43560;SDS011;32305;46.410;17.394;2022-07-06T06:48:11;4.63;;;2.40;;
43560;SDS011;32305;46.410;17.394;2022-07-06T06:50:43;2.65;;;2.45;;
43560;SDS011;32305;46.410;17.394;2022-07-06T06:53:11;3.05;;;2.85;;
43560;SDS011;32305;46.410;17.394;2022-07-06T06:55:38;2.50;;;2.30;;
43560;SDS011;32305;46.410;17.394;2022-07-06T06:58:06;2.47;;;2.28;;
43560;SDS011;32305;46.410;17.394;2022-07-06T07:00:33;2.17;;;2.08;;
43560;SDS011;32305;46.410;17.394;2022-07-06T07:03:00;2.28;;;2.17;;
43560;SDS011;32305;46.410;17.394;2022-07-06T07:05:27;2.30;;;2.20;;
43560;SDS011;32305;46.410;17.394;2022-07-06T07:07:55;2.05;;;1.90;;
43560;SDS011;32305;46.410;17.394;2022-07-06T07:10:30;1.85;;;1.75;;
43560;SDS011;32305;46.410;17.394;2022-07-06T07:12:57;1.92;;;1.83;;
43560;SDS011;32305;46.410;17.394;2022-07-06T07:15:24;2.08;;;1.98;;
43560;SDS011;32305;46.410;17.394;2022-07-06T07:17:52;2.25;;;2.00;;
43560;SDS011;32305;46.410;17.394;2022-07-06T07:20:19;1.42;;;1.42;;
43560;SDS011;32305;46.410;17.394;2022-07-06T07:22:47;2.33;;;2.13;;
43560;SDS011;32305;46.410;17.394;2022-07-06T07:25:14;1.80;;;1.70;;
43560;SDS011;32305;46.410;17.394;2022-07-06T07:27:41;2.10;;;1.90;;
43560;SDS011;32305;46.410;17.394;2022-07-06T07:30:09;2.08;;;1.98;;
43560;SDS011;32305;46.410;17.394;2022-07-06T07:32:36;1.80;;;1.70;;
43560;SDS011;32305;46.410;17.394;2022-07-06T07:35:03;1.70;;;1.60;;
43560;SDS011;32305;46.410;17.394;2022-07-06T07:37:31;2.00;;;1.90;;
43560;SDS011;32305;46.410;17.394;2022-07-06T07:39:58;1.52;;;1.52;;
43560;SDS011;32305;46.410;17.394;2022-07-06T07:42:26;2.00;;;1.90;;
43560;SDS011;32305;46.410;17.394;2022-07-06T07:44:53;2.00;;;1.90;;
43560;SDS011;32305;46.410;17.394;2022-07-06T07:47:21;1.88;;;1.77;;
43560;SDS011;32305;46.410;17.394;2022-07-06T07:49:48;1.60;;;1.50;;
43560;SDS011;32305;46.410;17.394;2022-07-06T07:52:16;1.23;;;1.23;;
43560;SDS011;32305;46.410;17.394;2022-07-06T07:54:43;2.80;;;1.90;;
43560;SDS011;32305;46.410;17.394;2022-07-06T07:57:19;1.73;;;1.63;;
43560;SDS011;32305;46.410;17.394;2022-07-06T07:59:46;1.75;;;1.65;;
43560;SDS011;32305;46.410;17.394;2022-07-06T08:02:14;1.50;;;1.50;;
43560;SDS011;32305;46.410;17.394;2022-07-06T08:04:41;1.77;;;1.67;;
43560;SDS011;32305;46.410;17.394;2022-07-06T08:07:08;1.90;;;1.80;;
43560;SDS011;32305;46.410;17.394;2022-07-06T08:09:36;1.60;;;1.52;;
43560;SDS011;32305;46.410;17.394;2022-07-06T08:12:03;1.50;;;1.40;;
43560;SDS011;32305;46.410;17.394;2022-07-06T08:14:32;1.63;;;1.52;;
43560;SDS011;32305;46.410;17.394;2022-07-06T08:16:59;2.58;;;1.70;;
43560;SDS011;32305;46.410;17.394;2022-07-06T08:19:26;2.42;;;1.45;;
43560;SDS011;32305;46.410;17.394;2022-07-06T08:21:53;1.75;;;1.65;;
43560;SDS011;32305;46.410;17.394;2022-07-06T08:24:20;1.70;;;1.60;;
43560;SDS011;32305;46.410;17.394;2022-07-06T08:26:48;1.70;;;1.60;;
43560;SDS011;32305;46.410;17.394;2022-07-06T08:29:15;1.48;;;1.38;;
43560;SDS011;32305;46.410;17.394;2022-07-06T08:31:42;1.85;;;1.75;;
43560;SDS011;32305;46.410;17.394;2022-07-06T08:34:30;1.52;;;1.42;;
43560;SDS011;32305;46.410;17.394;2022-07-06T08:37:00;1.73;;;1.63;;
43560;SDS011;32305;46.410;17.394;2022-07-06T08:39:27;1.42;;;1.33;;
43560;SDS011;32305;46.410;17.394;2022-07-06T08:41:55;2.00;;;1.80;;
43560;SDS011;32305;46.410;17.394;2022-07-06T08:44:25;2.10;;;1.90;;
43560;SDS011;32305;46.410;17.394;2022-07-06T08:46:53;1.50;;;1.40;;
43560;SDS011;32305;46.410;17.394;2022-07-06T08:49:24;1.50;;;1.40;;
43560;SDS011;32305;46.410;17.394;2022-07-06T08:51:53;1.85;;;1.40;;
43560;SDS011;32305;46.410;17.394;2022-07-06T08:54:21;1.70;;;1.60;;
43560;SDS011;32305;46.410;17.394;2022-07-06T08:56:49;1.80;;;1.70;;
43560;SDS011;32305;46.410;17.394;2022-07-06T08:59:17;1.77;;;1.33;;
43560;SDS011;32305;46.410;17.394;2022-07-06T09:01:44;1.45;;;1.45;;
43560;SDS011;32305;46.410;17.394;2022-07-06T09:04:16;3.20;;;1.90;;
43560;SDS011;32305;46.410;17.394;2022-07-06T09:06:46;1.23;;;1.23;;
43560;SDS011;32305;46.410;17.394;2022-07-06T09:09:17;1.67;;;1.30;;
43560;SDS011;32305;46.410;17.394;2022-07-06T09:11:48;1.63;;;1.30;;
43560;SDS011;32305;46.410;17.394;2022-07-06T09:14:16;1.30;;;1.30;;
43560;SDS011;32305;46.410;17.394;2022-07-06T09:16:45;3.58;;;1.98;;
43560;SDS011;32305;46.410;17.394;2022-07-06T09:19:18;1.88;;;1.50;;
43560;SDS011;32305;46.410;17.394;2022-07-06T09:21:45;1.58;;;1.30;;
43560;SDS011;32305;46.410;17.394;2022-07-06T09:24:12;1.50;;;1.50;;
43560;SDS011;32305;46.410;17.394;2022-07-06T09:26:40;1.50;;;1.40;;
43560;SDS011;32305;46.410;17.394;2022-07-06T09:29:08;1.33;;;1.20;;
43560;SDS011;32305;46.410;17.394;2022-07-06T09:31:37;1.73;;;1.63;;
43560;SDS011;32305;46.410;17.394;2022-07-06T09:34:05;1.58;;;1.48;;
43560;SDS011;32305;46.410;17.394;2022-07-06T09:36:44;2.22;;;1.63;;
43560;SDS011;32305;46.410;17.394;2022-07-06T09:39:21;1.15;;;1.15;;
43560;SDS011;32305;46.410;17.394;2022-07-06T09:41:51;1.40;;;1.40;;
43560;SDS011;32305;46.410;17.394;2022-07-06T09:44:21;1.40;;;1.40;;
43560;SDS011;32305;46.410;17.394;2022-07-06T09:46:53;1.50;;;1.35;;
43560;SDS011;32305;46.410;17.394;2022-07-06T09:49:25;1.50;;;1.40;;
43560;SDS011;32305;46.410;17.394;2022-07-06T09:51:54;1.35;;;1.35;;
43560;SDS011;32305;46.410;17.394;2022-07-06T09:54:23;2.55;;;1.23;;
43560;SDS011;32305;46.410;17.394;2022-07-06T09:56:51;2.53;;;1.45;;
43560;SDS011;32305;46.410;17.394;2022-07-06T09:59:20;1.40;;;1.38;;
43560;SDS011;32305;46.410;17.394;2022-07-06T10:01:50;1.70;;;1.60;;
43560;SDS011;32305;46.410;17.394;2022-07-06T10:04:19;2.60;;;1.58;;
43560;SDS011;32305;46.410;17.394;2022-07-06T10:06:48;1.33;;;1.33;;
43560;SDS011;32305;46.410;17.394;2022-07-06T10:09:15;1.38;;;1.27;;
43560;SDS011;32305;46.410;17.394;2022-07-06T10:11:48;1.48;;;1.45;;
43560;SDS011;32305;46.410;17.394;2022-07-06T10:14:18;1.33;;;1.23;;
43560;SDS011;32305;46.410;17.394;2022-07-06T10:16:49;1.50;;;1.40;;
43560;SDS011;32305;46.410;17.394;2022-07-06T10:19:18;1.10;;;1.02;;
43560;SDS011;32305;46.410;17.394;2022-07-06T10:21:46;1.55;;;1.33;;
43560;SDS011;32305;46.410;17.394;2022-07-06T10:24:14;1.20;;;1.20;;
43560;SDS011;32305;46.410;17.394;2022-07-06T10:26:42;1.17;;;1.17;;
43560;SDS011;32305;46.410;17.394;2022-07-06T10:29:09;1.20;;;1.20;;
43560;SDS011;32305;46.410;17.394;2022-07-06T10:31:38;1.73;;;1.63;;
43560;SDS011;32305;46.410;17.394;2022-07-06T10:34:10;1.33;;;1.30;;
43560;SDS011;32305;46.410;17.394;2022-07-06T10:36:40;1.30;;;1.20;;
43560;SDS011;32305;46.410;17.394;2022-07-06T10:39:10;1.17;;;1.13;;
43560;SDS011;32305;46.410;17.394;2022-07-06T10:41:58;1.17;;;1.10;;
43560;SDS011;32305;46.410;17.394;2022-07-06T10:44:26;1.08;;;1.08;;
43560;SDS011;32305;46.410;17.394;2022-07-06T10:46:55;0.90;;;0.90;;
43560;SDS011;32305;46.410;17.394;2022-07-06T10:49:24;1.17;;;1.10;;
43560;SDS011;32305;46.410;17.394;2022-07-06T10:52:15;1.20;;;1.15;;
43560;SDS011;32305;46.410;17.394;2022-07-06T10:54:43;1.08;;;1.08;;
43560;SDS011;32305;46.410;17.394;2022-07-06T10:57:11;1.60;;;1.50;;
43560;SDS011;32305;46.410;17.394;2022-07-06T10:59:59;1.13;;;1.13;;
43560;SDS011;32305;46.410;17.394;2022-07-06T11:02:38;0.95;;;0.95;;
43560;SDS011;32305;46.410;17.394;2022-07-06T11:05:10;1.40;;;1.30;;
43560;SDS011;32305;46.410;17.394;2022-07-06T11:07:49;1.20;;;1.20;;
43560;SDS011;32305;46.410;17.394;2022-07-06T11:10:17;1.05;;;1.05;;
43560;SDS011;32305;46.410;17.394;2022-07-06T11:12:44;1.30;;;1.17;;
43560;SDS011;32305;46.410;17.394;2022-07-06T11:15:11;0.85;;;0.85;;
43560;SDS011;32305;46.410;17.394;2022-07-06T11:17:39;1.10;;;1.10;;
43560;SDS011;32305;46.410;17.394;2022-07-06T11:20:30;1.45;;;1.30;;
43560;SDS011;32305;46.410;17.394;2022-07-06T11:23:04;1.73;;;1.30;;
43560;SDS011;32305;46.410;17.394;2022-07-06T11:25:32;2.25;;;1.35;;
43560;SDS011;32305;46.410;17.394;2022-07-06T11:28:00;1.27;;;1.27;;
43560;SDS011;32305;46.410;17.394;2022-07-06T11:30:27;1.45;;;1.30;;
43560;SDS011;32305;46.410;17.394;2022-07-06T11:33:00;1.20;;;1.20;;
43560;SDS011;32305;46.410;17.394;2022-07-06T11:35:27;1.27;;;1.27;;
43560;SDS011;32305;46.410;17.394;2022-07-06T11:37:54;2.58;;;1.33;;
43560;SDS011;32305;46.410;17.394;2022-07-06T11:40:22;1.40;;;1.40;;
43560;SDS011;32305;46.410;17.394;2022-07-06T11:42:52;1.65;;;1.55;;
43560;SDS011;32305;46.410;17.394;2022-07-06T11:45:25;1.52;;;1.42;;
43560;SDS011;32305;46.410;17.394;2022-07-06T11:48:08;1.08;;;1.08;;
43560;SDS011;32305;46.410;17.394;2022-07-06T11:50:36;1.30;;;1.20;;
43560;SDS011;32305;46.410;17.394;2022-07-06T11:53:04;1.27;;;1.20;;
43560;SDS011;32305;46.410;17.394;2022-07-06T11:55:31;2.80;;;1.30;;
43560;SDS011;32305;46.410;17.394;2022-07-06T11:57:59;1.60;;;1.50;;
43560;SDS011;32305;46.410;17.394;2022-07-06T12:00:28;1.10;;;1.10;;
43560;SDS011;32305;46.410;17.394;2022-07-06T12:02:59;1.02;;;1.02;;
43560;SDS011;32305;46.410;17.394;2022-07-06T12:05:30;1.40;;;1.40;;
43560;SDS011;32305;46.410;17.394;2022-07-06T12:08:07;1.90;;;1.65;;
43560;SDS011;32305;46.410;17.394;2022-07-06T12:10:35;1.85;;;1.73;;
43560;SDS011;32305;46.410;17.394;2022-07-06T12:13:04;1.20;;;1.20;;
43560;SDS011;32305;46.410;17.394;2022-07-06T12:15:33;1.20;;;1.15;;
43560;SDS011;32305;46.410;17.394;2022-07-06T12:18:00;1.42;;;1.33;;
43560;SDS011;32305;46.410;17.394;2022-07-06T12:20:27;2.17;;;1.40;;
43560;SDS011;32305;46.410;17.394;2022-07-06T12:23:03;1.00;;;1.00;;
43560;SDS011;32305;46.410;17.394;2022-07-06T12:25:31;1.45;;;1.45;;
43560;SDS011;32305;46.410;17.394;2022-07-06T12:27:59;1.30;;;1.30;;
43560;SDS011;32305;46.410;17.394;2022-07-06T12:30:27;1.50;;;1.40;;
43560;SDS011;32305;46.410;17.394;2022-07-06T12:35:44;1.75;;;1.13;;
43560;SDS011;32305;46.410;17.394;2022-07-06T12:38:12;1.35;;;1.17;;
43560;SDS011;32305;46.410;17.394;2022-07-06T12:40:39;5.03;;;1.20;;
43560;SDS011;32305;46.410;17.394;2022-07-06T12:43:06;1.40;;;1.30;;
43560;SDS011;32305;46.410;17.394;2022-07-06T12:45:34;1.35;;;1.30;;
43560;SDS011;32305;46.410;17.394;2022-07-06T12:48:02;3.70;;;1.13;;
43560;SDS011;32305;46.410;17.394;2022-07-06T12:53:00;1.48;;;1.10;;
43560;SDS011;32305;46.410;17.394;2022-07-06T12:55:29;2.95;;;1.33;;
43560;SDS011;32305;46.410;17.394;2022-07-06T12:57:57;1.08;;;1.08;;
43560;SDS011;32305;46.410;17.394;2022-07-06T13:00:24;3.17;;;1.15;;
43560;SDS011;32305;46.410;17.394;2022-07-06T13:02:52;0.75;;;0.75;;
43560;SDS011;32305;46.410;17.394;2022-07-06T13:05:36;1.20;;;1.15;;
43560;SDS011;32305;46.410;17.394;2022-07-06T13:08:06;0.90;;;0.90;;
43560;SDS011;32305;46.410;17.394;2022-07-06T13:10:35;1.38;;;1.27;;
43560;SDS011;32305;46.410;17.394;2022-07-06T13:13:03;5.28;;;1.33;;
43560;SDS011;32305;46.410;17.394;2022-07-06T13:15:34;1.20;;;1.10;;
43560;SDS011;32305;46.410;17.394;2022-07-06T13:18:01;1.15;;;1.10;;
43560;SDS011;32305;46.410;17.394;2022-07-06T13:20:28;1.10;;;1.10;;
43560;SDS011;32305;46.410;17.394;2022-07-06T13:22:55;1.33;;;1.17;;
43560;SDS011;32305;46.410;17.394;2022-07-06T13:25:23;1.02;;;1.02;;
43560;SDS011;32305;46.410;17.394;2022-07-06T13:27:50;0.98;;;0.98;;
43560;SDS011;32305;46.410;17.394;2022-07-06T13:30:18;1.08;;;1.08;;
43560;SDS011;32305;46.410;17.394;2022-07-06T13:32:45;1.25;;;1.15;;
43560;SDS011;32305;46.410;17.394;2022-07-06T13:35:14;1.20;;;1.10;;
43560;SDS011;32305;46.410;17.394;2022-07-06T13:37:45;1.00;;;1.00;;
43560;SDS011;32305;46.410;17.394;2022-07-06T13:40:16;1.25;;;1.15;;
43560;SDS011;32305;46.410;17.394;2022-07-06T13:42:47;1.65;;;0.90;;
43560;SDS011;32305;46.410;17.394;2022-07-06T13:45:15;1.35;;;1.25;;
43560;SDS011;32305;46.410;17.394;2022-07-06T13:47:42;1.13;;;1.02;;
43560;SDS011;32305;46.410;17.394;2022-07-06T13:50:09;1.23;;;1.23;;
43560;SDS011;32305;46.410;17.394;2022-07-06T13:52:37;1.02;;;1.02;;
43560;SDS011;32305;46.410;17.394;2022-07-06T13:55:04;1.33;;;1.20;;
43560;SDS011;32305;46.410;17.394;2022-07-06T13:57:32;0.90;;;0.90;;
43560;SDS011;32305;46.410;17.394;2022-07-06T14:00:03;1.65;;;1.05;;
43560;SDS011;32305;46.410;17.394;2022-07-06T14:02:31;1.25;;;1.25;;
43560;SDS011;32305;46.410;17.394;2022-07-06T14:04:58;0.90;;;0.90;;
43560;SDS011;32305;46.410;17.394;2022-07-06T14:07:25;1.27;;;1.17;;
43560;SDS011;32305;46.410;17.394;2022-07-06T14:09:53;0.80;;;0.80;;
43560;SDS011;32305;46.410;17.394;2022-07-06T14:12:20;0.90;;;0.90;;
43560;SDS011;32305;46.410;17.394;2022-07-06T14:14:50;0.85;;;0.80;;
43560;SDS011;32305;46.410;17.394;2022-07-06T14:17:17;0.85;;;0.85;;
43560;SDS011;32305;46.410;17.394;2022-07-06T14:19:44;1.30;;;0.88;;
43560;SDS011;32305;46.410;17.394;2022-07-06T14:22:12;0.70;;;0.70;;
43560;SDS011;32305;46.410;17.394;2022-07-06T14:24:39;1.00;;;1.00;;
43560;SDS011;32305;46.410;17.394;2022-07-06T14:27:07;3.17;;;1.00;;
43560;SDS011;32305;46.410;17.394;2022-07-06T14:29:34;1.17;;;1.13;;
43560;SDS011;32305;46.410;17.394;2022-07-06T14:32:01;0.80;;;0.80;;
43560;SDS011;32305;46.410;17.394;2022-07-06T14:34:28;5.15;;;0.95;;
43560;SDS011;32305;46.410;17.394;2022-07-06T14:36:56;1.20;;;1.20;;
43560;SDS011;32305;46.410;17.394;2022-07-06T14:39:23;1.08;;;0.98;;
43560;SDS011;32305;46.410;17.394;2022-07-06T14:41:50;1.00;;;1.00;;
43560;SDS011;32305;46.410;17.394;2022-07-06T14:44:17;1.20;;;1.10;;
43560;SDS011;32305;46.410;17.394;2022-07-06T14:46:44;0.80;;;0.80;;
43560;SDS011;32305;46.410;17.394;2022-07-06T14:49:11;0.70;;;0.70;;